createdAt,value
2018-05-26T00:02:22.664Z,101496.66
2018-05-26T00:04:50.790Z,101493.77
2018-05-26T00:07:18.926Z,101493.23
2018-05-26T00:09:47.047Z,101497.05
2018-05-26T00:12:15.177Z,101497.86
2018-05-26T00:14:43.317Z,101496.21
2018-05-26T00:17:11.435Z,101493.99
2018-05-26T00:19:39.557Z,101494.27
2018-05-26T00:22:07.687Z,101492.88
2018-05-26T00:24:35.818Z,101486.76
2018-05-26T00:27:03.945Z,101493.30
2018-05-26T00:29:32.085Z,101493.16
2018-05-26T00:32:00.227Z,101497.09
2018-05-26T00:34:28.334Z,101498.75
2018-05-26T00:36:57.311Z,101493.17
2018-05-26T00:39:25.427Z,101493.69
2018-05-26T00:41:53.580Z,101490.66
2018-05-26T00:44:21.691Z,101493.69
2018-05-26T00:46:49.824Z,101497.89
2018-05-26T00:49:17.956Z,101504.48
2018-05-26T00:51:46.203Z,101503.67
2018-05-26T00:54:14.326Z,101504.92
2018-05-26T00:56:42.436Z,101499.92
2018-05-26T00:59:10.573Z,101504.20
2018-05-26T01:01:38.690Z,101507.70
2018-05-26T01:04:06.842Z,101509.30
2018-05-26T01:06:34.979Z,101500.38
2018-05-26T01:09:03.112Z,101503.91
2018-05-26T01:11:31.238Z,101507.01
2018-05-26T01:13:59.384Z,101515.63
2018-05-26T01:16:27.499Z,101515.72
2018-05-26T01:18:55.633Z,101519.93
2018-05-26T01:21:23.769Z,101512.95
2018-05-26T01:23:51.916Z,101517.64
2018-05-26T01:26:20.241Z,101514.91
2018-05-26T01:28:48.362Z,101520.48
2018-05-26T01:31:16.501Z,101509.97
2018-05-26T01:33:44.647Z,101513.62
2018-05-26T01:36:12.785Z,101514.97
2018-05-26T01:38:40.894Z,101512.53
2018-05-26T01:41:09.038Z,101509.13
2018-05-26T01:43:37.158Z,101499.78
2018-05-26T01:46:11.024Z,101500.72
2018-05-26T01:48:39.142Z,101493.90
2018-05-26T01:51:07.267Z,101494.95
2018-05-26T01:53:35.380Z,101501.09
2018-05-26T01:56:03.520Z,101497.08
2018-05-26T01:58:31.667Z,101493.23
2018-05-26T02:00:59.774Z,101500.74
2018-05-26T02:03:27.899Z,101493.50
2018-05-26T02:05:56.036Z,101492.59
2018-05-26T02:08:24.302Z,101492.80
2018-05-26T02:10:52.446Z,101496.73
2018-05-26T02:13:20.572Z,101493.44
2018-05-26T02:15:48.719Z,101502.72
2018-05-26T02:18:17.011Z,101495.88
2018-05-26T02:20:45.145Z,101493.41
2018-05-26T02:23:13.274Z,101497.58
2018-05-26T02:25:41.539Z,101494.05
2018-05-26T02:28:09.670Z,101495.02
2018-05-26T02:30:37.822Z,101492.53
2018-05-26T02:33:05.957Z,101496.41
2018-05-26T02:35:34.062Z,101492.84
2018-05-26T02:38:02.183Z,101489.31
2018-05-26T02:40:30.317Z,101491.48
2018-05-26T02:42:58.453Z,101494.77
2018-05-26T02:45:26.577Z,101492.11
2018-05-26T02:47:54.724Z,101498.85
2018-05-26T02:50:22.830Z,101501.20
2018-05-26T02:52:50.994Z,101505.14
2018-05-26T02:55:19.148Z,101499.84
2018-05-26T02:57:47.269Z,101501.10
2018-05-26T03:00:15.390Z,101500.42
2018-05-26T03:02:43.519Z,101503.25
2018-05-26T03:05:17.187Z,101501.31
2018-05-26T03:07:50.863Z,101502.86
2018-05-26T03:10:24.353Z,101504.56
2018-05-26T03:12:58.150Z,101499.53
2018-05-26T03:15:25.745Z,101501.70
2018-05-26T03:17:59.686Z,101505.64
2018-05-26T03:20:27.955Z,101502.81
2018-05-26T03:22:56.077Z,101506.32
2018-05-26T03:25:24.413Z,101499.82
2018-05-26T03:27:52.526Z,101498.33
2018-05-26T03:30:20.675Z,101505.38
2018-05-26T03:32:48.825Z,101500.59
2018-05-26T03:35:16.968Z,101508.26
2018-05-26T03:37:45.104Z,101508.96
2018-05-26T03:40:13.241Z,101510.56
2018-05-26T03:42:41.388Z,101510.70
2018-05-26T03:45:09.531Z,101516.20
2018-05-26T03:47:37.661Z,101518.42
2018-05-26T03:50:05.788Z,101519.75
2018-05-26T03:52:33.895Z,101518.48
2018-05-26T03:58:24.687Z,101527.80
2018-05-26T04:00:52.826Z,101526.14
2018-05-26T04:03:20.962Z,101525.24
2018-05-26T04:05:49.138Z,101529.16
2018-05-26T04:08:17.677Z,101528.31
2018-05-26T04:10:45.824Z,101527.09
2018-05-26T04:13:13.930Z,101527.38
2018-05-26T04:15:42.073Z,101534.51
2018-05-26T04:18:10.205Z,101536.39
2018-05-26T04:20:38.318Z,101538.28
2018-05-26T04:23:06.443Z,101542.00
2018-05-26T04:25:34.577Z,101543.66
2018-05-26T04:28:02.704Z,101556.45
2018-05-26T04:30:30.829Z,101558.28
2018-05-26T04:32:58.967Z,101562.09
2018-05-26T04:35:27.145Z,101561.02
2018-05-26T04:37:55.388Z,101563.34
2018-05-26T04:40:23.577Z,101560.22
2018-05-26T04:42:51.695Z,101570.73
2018-05-26T04:45:20.027Z,101575.14
2018-05-26T04:47:48.146Z,101574.22
2018-05-26T04:50:16.280Z,101580.33
2018-05-26T04:52:44.443Z,101572.30
2018-05-26T04:55:12.624Z,101576.95
2018-05-26T04:57:40.766Z,101572.06
2018-05-26T05:00:08.887Z,101573.80
2018-05-26T05:02:37.006Z,101579.39
2018-05-26T05:05:05.129Z,101577.11
2018-05-26T05:07:33.327Z,101582.01
2018-05-26T05:10:01.453Z,101586.97
2018-05-26T05:12:29.577Z,101582.05
2018-05-26T05:14:57.729Z,101587.83
2018-05-26T05:17:25.856Z,101586.19
2018-05-26T05:19:53.984Z,101585.54
2018-05-26T05:22:24.021Z,101582.96
2018-05-26T05:24:52.149Z,101586.13
2018-05-26T05:27:20.274Z,101583.72
2018-05-26T05:29:48.441Z,101586.63
2018-05-26T05:32:16.546Z,101591.82
2018-05-26T05:34:44.692Z,101594.97
2018-05-26T05:37:12.826Z,101596.94
2018-05-26T05:39:40.971Z,101597.80
2018-05-26T05:42:09.089Z,101601.05
2018-05-26T05:44:37.220Z,101607.63
2018-05-26T05:47:08.688Z,101605.08
2018-05-26T05:49:36.842Z,101606.59
2018-05-26T05:52:08.495Z,101608.17
2018-05-26T05:54:36.626Z,101609.45
2018-05-26T05:57:04.750Z,101610.41
2018-05-26T05:59:32.892Z,101607.88
2018-05-26T06:02:01.017Z,101610.64
2018-05-26T06:04:29.171Z,101608.66
2018-05-26T06:06:57.301Z,101615.49
2018-05-26T06:09:25.414Z,101615.63
2018-05-26T06:11:53.555Z,101616.33
2018-05-26T06:14:21.689Z,101615.37
2018-05-26T06:16:49.838Z,101620.45
2018-05-26T06:19:18.008Z,101619.97
2018-05-26T06:21:46.127Z,101621.39
2018-05-26T06:24:14.272Z,101628.62
2018-05-26T06:26:42.401Z,101627.30
2018-05-26T06:29:10.560Z,101628.30
2018-05-26T06:31:38.695Z,101624.63
2018-05-26T06:34:06.801Z,101626.17
2018-05-26T06:36:34.968Z,101630.70
2018-05-26T06:39:03.074Z,101631.95
2018-05-26T06:41:31.194Z,101630.02
2018-05-26T06:43:59.565Z,101636.34
2018-05-26T06:46:27.905Z,101631.81
2018-05-26T06:48:56.041Z,101635.56
2018-05-26T06:51:24.203Z,101634.06
2018-05-26T06:53:52.304Z,101629.58
2018-05-26T06:56:20.439Z,101628.62
2018-05-26T06:58:48.582Z,101625.47
2018-05-26T07:01:16.692Z,101625.33
2018-05-26T07:03:44.817Z,101624.39
2018-05-26T07:06:12.969Z,101625.34
2018-05-26T07:08:41.071Z,101623.55
2018-05-26T07:11:09.196Z,101619.86
2018-05-26T07:13:37.320Z,101611.11
2018-05-26T07:16:05.446Z,101612.87
2018-05-26T07:18:33.579Z,101613.42
2018-05-26T07:21:01.738Z,101618.48
2018-05-26T07:23:29.835Z,101614.09
2018-05-26T07:25:57.943Z,101618.05
2018-05-26T07:28:26.071Z,101623.41
2018-05-26T07:30:54.199Z,101618.07
2018-05-26T07:33:22.325Z,101609.95
2018-05-26T07:35:50.456Z,101613.55
2018-05-26T07:38:18.555Z,101610.23
2018-05-26T07:40:46.686Z,101612.30
2018-05-26T07:43:14.804Z,101612.46
2018-05-26T07:45:42.935Z,101611.59
2018-05-26T07:48:11.077Z,101610.08
2018-05-26T07:50:39.189Z,101615.84
2018-05-26T07:53:07.335Z,101605.82
2018-05-26T07:55:35.443Z,101608.00
2018-05-26T07:58:03.587Z,101609.34
2018-05-26T08:00:31.737Z,101616.81
2018-05-26T08:02:59.835Z,101611.30
2018-05-26T08:05:28.031Z,101614.05
2018-05-26T08:07:56.107Z,101615.27
2018-05-26T08:10:24.604Z,101611.48
2018-05-26T08:12:52.919Z,101608.92
2018-05-26T08:15:21.046Z,101605.53
2018-05-26T08:17:49.173Z,101607.20
2018-05-26T08:20:17.311Z,101611.41
2018-05-26T08:22:48.351Z,101616.38
2018-05-26T08:25:16.458Z,101618.62
2018-05-26T08:27:44.619Z,101620.15
2018-05-26T08:30:12.724Z,101625.08
2018-05-26T08:32:40.845Z,101622.77
2018-05-26T08:35:08.988Z,101626.70
2018-05-26T08:37:37.132Z,101618.61
2018-05-26T08:40:05.252Z,101630.78
2018-05-26T08:42:33.397Z,101628.56
2018-05-26T08:45:01.510Z,101629.80
2018-05-26T08:47:29.628Z,101629.20
2018-05-26T08:49:57.799Z,101626.22
2018-05-26T08:52:25.915Z,101626.52
2018-05-26T08:54:54.057Z,101626.92
2018-05-26T08:57:22.149Z,101622.77
2018-05-26T08:59:50.265Z,101627.19
2018-05-26T09:02:18.449Z,101630.83
2018-05-26T09:04:46.553Z,101629.08
2018-05-26T09:07:14.670Z,101626.25
2018-05-26T09:09:42.793Z,101628.12
2018-05-26T09:12:10.919Z,101627.28
2018-05-26T09:14:39.051Z,101629.61
2018-05-26T09:17:07.181Z,101622.89
2018-05-26T09:19:35.355Z,101618.91
2018-05-26T09:22:03.483Z,101624.14
2018-05-26T09:24:31.604Z,101624.53
2018-05-26T09:26:59.742Z,101615.94
2018-05-26T09:29:27.850Z,101621.53
2018-05-26T09:31:55.991Z,101616.41
2018-05-26T09:34:24.296Z,101619.42
2018-05-26T09:36:52.433Z,101622.16
2018-05-26T09:39:20.942Z,101618.31
2018-05-26T09:41:49.075Z,101616.62
2018-05-26T09:44:17.209Z,101612.77
2018-05-26T09:46:45.295Z,101614.34
2018-05-26T09:49:13.472Z,101619.73
2018-05-26T09:51:41.572Z,101624.40
2018-05-26T09:54:12.972Z,101621.05
2018-05-26T09:56:41.093Z,101631.64
2018-05-26T09:59:09.224Z,101631.00
2018-05-26T10:01:37.344Z,101625.89
2018-05-26T10:04:05.463Z,101624.22
2018-05-26T10:06:33.610Z,101615.03
2018-05-26T10:09:01.708Z,101619.73
2018-05-26T10:11:29.835Z,101614.22
2018-05-26T10:13:57.952Z,101615.53
2018-05-26T10:16:26.090Z,101609.22
2018-05-26T10:18:54.195Z,101610.16
2018-05-26T10:21:22.344Z,101603.66
2018-05-26T10:23:50.509Z,101607.84
2018-05-26T10:26:18.835Z,101613.23
2018-05-26T10:28:47.098Z,101611.28
2018-05-26T10:31:15.209Z,101601.26
2018-05-26T10:33:43.363Z,101602.06
2018-05-26T10:36:11.632Z,101594.98
2018-05-26T10:38:39.766Z,101593.34
2018-05-26T10:41:07.908Z,101590.52
2018-05-26T10:43:36.038Z,101592.24
2018-05-26T10:46:16.107Z,101595.87
2018-05-26T10:48:44.229Z,101596.57
2018-05-26T10:51:12.345Z,101600.28
2018-05-26T10:53:40.469Z,101593.36
2018-05-26T10:56:08.604Z,101590.73
2018-05-26T10:58:36.732Z,101594.41
2018-05-26T11:01:04.845Z,101597.89
2018-05-26T11:03:32.981Z,101597.41
2018-05-26T11:06:01.112Z,101606.86
2018-05-26T11:08:29.410Z,101595.00
2018-05-26T11:10:57.502Z,101594.65
2018-05-26T11:13:25.665Z,101593.75
2018-05-26T11:15:53.772Z,101600.80
2018-05-26T11:18:21.895Z,101597.88
2018-05-26T11:20:49.990Z,101595.23
2018-05-26T11:23:18.180Z,101595.73
2018-05-26T11:25:46.261Z,101593.64
2018-05-26T11:28:14.388Z,101596.20
2018-05-26T11:30:42.588Z,101596.20
2018-05-26T11:33:10.693Z,101594.16
2018-05-26T11:35:38.831Z,101599.73
2018-05-26T11:38:06.972Z,101607.31
2018-05-26T11:40:35.081Z,101600.59
2018-05-26T11:43:03.228Z,101594.48
2018-05-26T11:45:31.419Z,101590.18
2018-05-26T11:47:59.538Z,101602.06
2018-05-26T11:50:27.659Z,101599.05
2018-05-26T11:52:55.846Z,101598.48
2018-05-26T11:55:24.022Z,101594.92
2018-05-26T11:57:52.136Z,101597.88
2018-05-26T12:00:20.278Z,101589.75
2018-05-26T12:02:48.411Z,101590.49
2018-05-26T12:05:16.551Z,101593.03
2018-05-26T12:07:44.658Z,101585.13
2018-05-26T12:10:12.796Z,101586.80
2018-05-26T12:12:40.942Z,101581.58
2018-05-26T12:15:09.061Z,101580.80
2018-05-26T12:17:37.176Z,101583.98
2018-05-26T12:20:05.325Z,101580.36
2018-05-26T12:22:33.435Z,101582.55
2018-05-26T12:25:01.579Z,101583.92
2018-05-26T12:27:29.693Z,101584.34
2018-05-26T12:29:57.814Z,101579.58
2018-05-26T12:32:25.960Z,101580.91
2018-05-26T12:34:54.079Z,101586.09
2018-05-26T12:37:22.204Z,101586.83
2018-05-26T12:39:50.330Z,101582.70
2018-05-26T12:42:18.430Z,101585.47
2018-05-26T12:44:46.581Z,101586.59
2018-05-26T12:47:14.714Z,101588.93
2018-05-26T12:49:42.839Z,101589.55
2018-05-26T12:52:10.994Z,101582.44
2018-05-26T12:54:39.054Z,101582.91
2018-05-26T12:57:07.166Z,101580.62
2018-05-26T12:59:35.305Z,101573.36
2018-05-26T13:02:03.453Z,101566.63
2018-05-26T13:04:31.643Z,101573.93
2018-05-26T13:06:59.886Z,101566.19
2018-05-26T13:09:27.998Z,101575.70
2018-05-26T13:11:56.127Z,101566.74
2018-05-26T13:14:24.275Z,101563.44
2018-05-26T13:16:52.389Z,101567.31
2018-05-26T13:19:20.849Z,101567.62
2018-05-26T13:21:48.977Z,101560.11
2018-05-26T13:24:17.100Z,101559.85
2018-05-26T13:26:45.239Z,101554.90
2018-05-26T13:29:13.353Z,101553.73
2018-05-26T13:31:41.481Z,101547.80
2018-05-26T13:34:09.619Z,101547.23
2018-05-26T13:36:37.706Z,101544.84
2018-05-26T13:39:05.819Z,101537.69
2018-05-26T13:41:33.961Z,101533.77
2018-05-26T13:44:02.062Z,101535.37
2018-05-26T13:46:30.177Z,101535.96
2018-05-26T13:48:58.417Z,101538.05
2018-05-26T13:51:26.598Z,101529.80
2018-05-26T13:53:54.677Z,101525.72
2018-05-26T13:56:22.821Z,101532.89
2018-05-26T13:58:50.899Z,101531.34
2018-05-26T14:01:18.999Z,101526.69
2018-05-26T14:03:47.115Z,101533.05
2018-05-26T14:06:15.244Z,101535.92
2018-05-26T14:08:43.380Z,101530.84
2018-05-26T14:11:11.505Z,101528.90
2018-05-26T14:13:39.623Z,101531.31
2018-05-26T14:16:07.731Z,101524.16
2018-05-26T14:18:35.857Z,101520.84
2018-05-26T14:21:03.951Z,101518.58
2018-05-26T14:23:32.085Z,101512.46
2018-05-26T14:26:00.219Z,101518.14
2018-05-26T14:28:28.340Z,101506.79
2018-05-26T14:30:56.447Z,101501.16
2018-05-26T14:33:24.565Z,101508.02
2018-05-26T14:35:52.679Z,101505.31
2018-05-26T14:38:20.828Z,101511.47
2018-05-26T14:40:48.950Z,101502.30
2018-05-26T14:43:17.053Z,101497.78
2018-05-26T14:45:45.173Z,101495.55
2018-05-26T14:48:13.313Z,101494.99
2018-05-26T14:50:41.463Z,101491.78
2018-05-26T14:53:13.032Z,101490.56
2018-05-26T14:55:41.149Z,101494.80
2018-05-26T14:58:09.253Z,101486.12
2018-05-26T15:00:37.385Z,101486.34
2018-05-26T15:03:05.589Z,101488.28
2018-05-26T15:05:33.787Z,101488.27
2018-05-26T15:08:01.901Z,101494.05
2018-05-26T15:10:30.033Z,101484.72
2018-05-26T15:12:58.303Z,101481.19
2018-05-26T15:15:26.264Z,101480.70
2018-05-26T15:17:54.384Z,101482.73
2018-05-26T15:20:22.511Z,101484.47
2018-05-26T15:22:50.645Z,101476.81
2018-05-26T15:25:18.761Z,101483.98
2018-05-26T15:27:46.871Z,101485.67
2018-05-26T15:30:14.980Z,101490.15
2018-05-26T15:32:43.119Z,101486.00
2018-05-26T15:35:11.256Z,101479.86
2018-05-26T15:37:39.355Z,101479.00
2018-05-26T15:40:07.496Z,101479.45
2018-05-26T15:42:35.665Z,101484.20
2018-05-26T15:45:03.778Z,101479.17
2018-05-26T15:47:31.908Z,101476.03
2018-05-26T15:50:00.030Z,101479.52
2018-05-26T15:52:28.159Z,101479.33
2018-05-26T15:54:56.299Z,101475.16
2018-05-26T15:57:24.413Z,101479.23
2018-05-26T15:59:52.539Z,101477.92
2018-05-26T16:02:20.651Z,101476.52
2018-05-26T16:04:48.792Z,101477.44
2018-05-26T16:07:16.912Z,101480.38
2018-05-26T16:09:45.031Z,101472.12
2018-05-26T16:12:13.147Z,101477.84
2018-05-26T16:14:41.272Z,101471.36
2018-05-26T16:17:09.419Z,101477.28
2018-05-26T16:19:37.609Z,101475.79
2018-05-26T16:22:05.722Z,101470.81
2018-05-26T16:24:33.828Z,101469.66
2018-05-26T16:27:01.955Z,101469.46
2018-05-26T16:29:30.065Z,101479.55
2018-05-26T16:31:58.189Z,101486.55
2018-05-26T16:34:26.307Z,101478.33
2018-05-26T16:36:54.416Z,101474.80
2018-05-26T16:39:22.530Z,101483.91
2018-05-26T16:41:50.648Z,101486.83
2018-05-26T16:44:18.766Z,101480.78
2018-05-26T16:46:46.924Z,101481.52
2018-05-26T16:49:15.145Z,101480.95
2018-05-26T16:51:43.266Z,101479.25
2018-05-26T16:54:11.499Z,101476.98
2018-05-26T16:56:39.647Z,101479.12
2018-05-26T16:59:07.747Z,101472.98
2018-05-26T17:01:35.881Z,101479.72
2018-05-26T17:04:03.998Z,101482.52
2018-05-26T17:06:32.117Z,101476.63
2018-05-26T17:09:00.289Z,101478.72
2018-05-26T17:11:28.424Z,101484.55
2018-05-26T17:13:56.552Z,101481.46
2018-05-26T17:16:24.689Z,101482.84
2018-05-26T17:18:52.794Z,101486.83
2018-05-26T17:21:20.903Z,101488.75
2018-05-26T17:23:49.044Z,101492.78
2018-05-26T17:26:17.175Z,101493.05
2018-05-26T17:28:45.290Z,101485.82
2018-05-26T17:31:13.564Z,101488.80
2018-05-26T17:33:41.688Z,101484.81
2018-05-26T17:36:12.515Z,101485.17
2018-05-26T17:38:40.625Z,101484.58
2018-05-26T17:41:08.772Z,101493.34
2018-05-26T17:43:36.885Z,101492.55
2018-05-26T17:46:04.987Z,101494.98
2018-05-26T17:48:33.124Z,101494.30
2018-05-26T17:51:01.237Z,101497.43
2018-05-26T17:53:29.372Z,101495.11
2018-05-26T17:55:57.467Z,101495.28
2018-05-26T17:58:25.856Z,101497.14
2018-05-26T18:00:53.961Z,101495.11
2018-05-26T18:03:22.068Z,101498.56
2018-05-26T18:05:50.212Z,101500.47
2018-05-26T18:08:18.317Z,101499.79
2018-05-26T18:10:46.472Z,101501.43
2018-05-26T18:13:14.599Z,101502.81
2018-05-26T18:15:42.702Z,101502.97
2018-05-26T18:18:10.835Z,101504.25
2018-05-26T18:20:38.949Z,101500.05
2018-05-26T18:23:07.078Z,101497.30
2018-05-26T18:25:35.194Z,101496.80
2018-05-26T18:28:03.298Z,101504.21
2018-05-26T18:30:31.416Z,101502.29
2018-05-26T18:32:59.532Z,101498.48
2018-05-26T18:35:27.825Z,101505.31
2018-05-26T18:37:55.957Z,101495.28
2018-05-26T18:40:24.094Z,101497.57
2018-05-26T18:42:52.218Z,101494.66
2018-05-26T18:45:20.336Z,101501.47
2018-05-26T18:47:48.465Z,101498.65
2018-05-26T18:50:16.578Z,101501.61
2018-05-26T18:52:47.836Z,101505.64
2018-05-26T18:55:15.947Z,101504.95
2018-05-26T18:57:44.047Z,101501.44
2018-05-26T19:00:12.233Z,101503.72
2018-05-26T19:02:41.026Z,101503.70
2018-05-26T19:05:09.153Z,101505.17
2018-05-26T19:07:37.258Z,101513.28
2018-05-26T19:10:05.385Z,101513.35
2018-05-26T19:12:33.510Z,101520.44
2018-05-26T19:15:01.626Z,101524.70
2018-05-26T19:17:29.746Z,101521.52
2018-05-26T19:19:57.861Z,101519.58
2018-05-26T19:22:25.994Z,101517.17
2018-05-26T19:24:54.451Z,101516.98
2018-05-26T19:27:22.584Z,101515.50
2018-05-26T19:29:50.696Z,101513.43
2018-05-26T19:32:18.818Z,101519.56
2018-05-26T19:34:46.950Z,101519.52
2018-05-26T19:37:15.090Z,101522.92
2018-05-26T19:39:43.234Z,101522.98
2018-05-26T19:42:11.361Z,101530.89
2018-05-26T19:44:39.470Z,101522.32
2018-05-26T19:47:07.594Z,101521.02
2018-05-26T19:49:39.051Z,101524.79
2018-05-26T19:52:07.177Z,101533.11
2018-05-26T19:54:35.308Z,101534.70
2018-05-26T19:57:03.449Z,101534.61
2018-05-26T19:59:31.542Z,101535.66
2018-05-26T20:01:59.663Z,101539.55
2018-05-26T20:04:27.800Z,101538.95
2018-05-26T20:06:55.917Z,101542.05
2018-05-26T20:09:27.362Z,101546.11
2018-05-26T20:11:55.583Z,101547.42
2018-05-26T20:14:23.680Z,101551.15
2018-05-26T20:16:51.852Z,101544.48
2018-05-26T20:19:20.131Z,101553.86
2018-05-26T20:21:48.269Z,101558.45
2018-05-26T20:24:16.377Z,101555.45
2018-05-26T20:26:44.688Z,101553.17
2018-05-26T20:29:12.803Z,101553.48
2018-05-26T20:31:40.921Z,101553.27
2018-05-26T20:34:09.102Z,101554.08
2018-05-26T20:36:41.128Z,101549.05
2018-05-26T20:39:09.247Z,101550.32
2018-05-26T20:41:37.628Z,101551.86
2018-05-26T20:44:05.764Z,101550.38
2018-05-26T20:46:33.911Z,101553.00
2018-05-26T20:49:02.007Z,101548.91
2018-05-26T20:51:30.172Z,101553.85
2018-05-26T20:53:58.290Z,101550.47
2018-05-26T20:56:30.149Z,101552.15
2018-05-26T20:58:58.272Z,101549.81
2018-05-26T21:01:26.406Z,101557.24
2018-05-26T21:03:54.526Z,101558.50
2018-05-26T21:06:22.667Z,101551.23
2018-05-26T21:08:50.789Z,101558.14
2018-05-26T21:11:18.977Z,101557.64
2018-05-26T21:13:47.109Z,101554.63
2018-05-26T21:16:15.219Z,101556.17
2018-05-26T21:18:43.353Z,101560.03
2018-05-26T21:21:11.561Z,101561.12
2018-05-26T21:23:39.641Z,101559.20
2018-05-26T21:26:07.757Z,101559.13
2018-05-26T21:28:35.896Z,101551.00
2018-05-26T21:31:04.027Z,101548.97
2018-05-26T21:33:32.220Z,101541.83
2018-05-26T21:36:00.336Z,101539.80
2018-05-26T21:38:28.452Z,101535.72
2018-05-26T21:40:56.577Z,101542.31
2018-05-26T21:43:24.697Z,101548.35
2018-05-26T21:45:52.810Z,101554.41
2018-05-26T21:48:23.961Z,101557.56
2018-05-26T21:50:52.094Z,101556.44
2018-05-26T21:53:20.224Z,101557.42
2018-05-26T21:55:48.352Z,101557.15
2018-05-26T21:58:16.477Z,101553.06
2018-05-26T22:00:44.594Z,101551.83
2018-05-26T22:03:12.725Z,101555.25
2018-05-26T22:05:40.884Z,101553.75
2018-05-26T22:10:36.256Z,101559.40
2018-05-26T22:13:04.457Z,101561.33
2018-05-26T22:15:35.811Z,101559.96
2018-05-26T22:18:03.943Z,101556.28
2018-05-26T22:20:32.062Z,101556.95
2018-05-26T22:23:00.211Z,101555.73
2018-05-26T22:25:28.313Z,101554.21
2018-05-26T22:27:56.459Z,101555.84
2018-05-26T22:30:24.578Z,101551.19
2018-05-26T22:32:52.691Z,101552.58
2018-05-26T22:35:20.817Z,101552.17
2018-05-26T22:37:48.959Z,101549.42
2018-05-26T22:40:17.092Z,101545.00
2018-05-26T22:42:45.236Z,101549.92
2018-05-26T22:45:13.361Z,101546.23
2018-05-26T22:47:41.465Z,101544.73
2018-05-26T22:50:15.301Z,101541.02
2018-05-26T22:52:43.410Z,101546.06
2018-05-26T22:55:12.367Z,101543.05
2018-05-26T22:57:40.522Z,101536.78
2018-05-26T23:00:08.645Z,101535.27
2018-05-26T23:02:36.769Z,101531.78
2018-05-26T23:05:04.912Z,101534.55
2018-05-26T23:07:33.037Z,101530.35
2018-05-26T23:10:01.152Z,101537.22
2018-05-26T23:12:29.276Z,101534.75
2018-05-26T23:14:57.420Z,101534.63
2018-05-26T23:17:25.525Z,101531.08
2018-05-26T23:19:53.653Z,101529.11
2018-05-26T23:22:21.811Z,101534.89
2018-05-26T23:24:49.921Z,101541.36
2018-05-26T23:27:18.069Z,101532.00
2018-05-26T23:29:46.213Z,101536.53
2018-05-26T23:32:14.351Z,101534.75
2018-05-26T23:34:42.484Z,101528.16
2018-05-26T23:37:10.605Z,101533.14
2018-05-26T23:39:38.750Z,101526.98
2018-05-26T23:42:06.883Z,101528.49
2018-05-26T23:44:35.193Z,101521.09
2018-05-26T23:47:03.324Z,101519.98
2018-05-26T23:49:31.455Z,101514.19
2018-05-26T23:51:59.560Z,101508.69
2018-05-26T23:54:27.676Z,101515.82
2018-05-26T23:56:55.816Z,101510.07
2018-05-26T23:59:23.936Z,101516.27
